• Join FlightAware (Why Join?)
  • Login
  • US Flag 
02:23AM EDT


 

Airport Tracker/Info


-or-


 

Live Flight TrackerFlight Track Log ✈ VH-VQB ✈ 16-Apr-2013 ✈ YMML / MEL - YSSY / SYD

Flight Track Log - Related Links

Times and Time Zones

All times are in EDT time to prevent confusion due to time zone crossing. See the VH-VQB flight status page for this flight to view local times or setup timezone preferences in your user account.

Time Position Orientation Groundspeed Altitude Reporting Facility
EDT Latitude Longitude Course Direction KTS MPH feet Rate Location/Type
07:27PM -37.6600 144.8050 275° West 162 186 1,400  Level FlightAware
07:28PM -37.6570 144.7780 278° West 199 229 2,000 1,200 Climbing FlightAware
07:28PM -37.6550 144.7400 274° West 245 282 2,500 1,920 Climbing FlightAware
07:29PM -37.6470 144.7010 285° West 275 316 3,800 3,300 Climbing FlightAware
07:29PM -37.6300 144.6850 323° Northwest 282 325 4,700 3,600 Climbing FlightAware
07:29PM -37.6120 144.6780 343° North 283 326 5,600 4,080 Climbing FlightAware
07:30PM -37.5750 144.6630 342° North 277 319 7,800 3,600 Climbing FlightAware
07:30PM -37.5510 144.6560 347° North 291 335 8,600 2,700 Climbing FlightAware
07:30PM -37.5260 144.6650 16° North 296 341 9,600 2,580 Climbing FlightAware
07:31PM -37.4790 144.7000 31° Northeast 316 364 11,200 2,220 Climbing FlightAware
07:32PM -37.4150 144.7490 31° Northeast 354 407 12,800 2,400 Climbing FlightAware
07:32PM -37.3590 144.7970 34° Northeast 366 421 14,600 2,520 Climbing FlightAware
07:33PM -37.3010 144.8590 40° Northeast 379 436 16,400 2,280 Climbing FlightAware
07:34PM -37.2460 144.9170 40° Northeast 390 449 17,900 1,680 Climbing FlightAware
07:34PM -37.1920 144.9710 39° Northeast 415 478 18,700 1,560 Climbing FlightAware
07:35PM -37.1370 145.0270 39° Northeast 423 487 19,900 1,980 Climbing FlightAware
07:36PM -37.0650 145.0990 39° Northeast 435 501 21,400 2,040 Climbing FlightAware
07:36PM -37.0142 145.1544 39° Northeast 440 506 22,500 2,040 Climbing Aus ATC (RADAR)
07:37PM -36.9930 145.1850 39° Northeast 436 502 23,100 2,280 Climbing FlightAware
07:37PM -36.9380 145.2620 48° Northeast 429 494 24,800 2,280 Climbing FlightAware
07:38PM -36.9020 145.3129 48° Northeast 431 496 25,600 1,560 Climbing Aus ATC (RADAR)
07:38PM -36.8770 145.3460 48° Northeast 435 501 26,000 1,200 Climbing FlightAware
07:39PM -36.8220 145.4230 48° Northeast 447 514 26,800 1,440 Climbing FlightAware
07:39PM -36.7800 145.4845 48° Northeast 447 514 27,700 1,500 Climbing Aus ATC (RADAR)
07:39PM -36.7710 145.5040 48° Northeast 449 517 27,800 1,260 Climbing FlightAware
07:40PM -36.7230 145.6020 59° Northeast 454 522 28,900 1,560 Climbing FlightAware
07:41PM -36.6874 145.6736 59° Northeast 454 522 29,800 1,320 Climbing Aus ATC (RADAR)
07:41PM -36.6780 145.6930 59° Northeast 458 527 29,800 1,200 Level FlightAware
07:41PM -36.6270 145.7940 58° Northeast 459 528 30,900 1,680 Climbing FlightAware
07:42PM -36.5871 145.8743 58° Northeast 454 522 32,100 1,800 Climbing Aus ATC (RADAR)
07:42PM -36.5830 145.8830 58° Northeast 451 519 32,100 1,320 Level FlightAware
07:43PM -36.5400 145.9680 58° Northeast 449 517 33,100 1,200 Climbing FlightAware
07:44PM -36.4900 146.0670 58° Northeast 454 522 33,800 1,200 Climbing FlightAware
07:44PM -36.4470 146.1550 59° Northeast 450 518 34,800 1,020 Climbing FlightAware
07:45PM -36.4010 146.2450 58° Northeast 459 528 35,200 660 Climbing FlightAware
07:46PM -36.3500 146.3460 58° Northeast 462 532 35,800 540 Climbing FlightAware
07:46PM -36.3060 146.4330 58° Northeast 458 527 36,000 300 Climbing FlightAware
07:47PM -36.2812 146.4819 58° Northeast 455 524 36,100  Climbing Aus ATC (RADAR)
07:47PM -36.2550 146.5340 58° Northeast 456 525 36,000 -120 Descending FlightAware
07:48PM -36.2090 146.6230 57° Northeast 453 521 36,000 60 Level FlightAware
07:48PM -36.1751 146.6904 57° Northeast 449 517 36,100  Climbing Aus ATC (RADAR)
07:48PM -36.1600 146.7200 57° Northeast 451 519 36,000 -120 Descending FlightAware
07:49PM -36.1140 146.8090 57° Northeast 450 518 36,000  Level FlightAware
07:50PM -36.0749 146.8855 57° Northeast 445 512 36,000  Level Aus ATC (RADAR)
07:50PM -36.0730 146.8890 57° Northeast 451 519 36,000  Level FlightAware
07:51PM -36.0220 146.9890 58° Northeast 454 522 36,000  Level FlightAware
07:51PM -35.9740 147.0820 57° Northeast 455 524 36,000  Level FlightAware
07:52PM -35.9230 147.1800 57° Northeast 456 525 36,000 -240 Level FlightAware
07:53PM -35.8780 147.2660 57° Northeast 458 527 35,700 -480 Descending FlightAware
07:54PM -35.7630 147.4847 57° Northeast 447 514 35,000 -360 Descending Aus ATC (RADAR)
07:55PM -35.7460 147.5169 57° Northeast 446 513 35,100  Climbing Aus ATC (RADAR)
07:56PM -35.6730 147.6580 57° Northeast 450 518 35,000  Descending FlightAware
07:56PM -35.6334 147.7316 57° Northeast 444 511 35,100  Climbing Aus ATC (RADAR)
07:56PM -35.6240 147.7510 57° Northeast 452 520 35,000 -120 Descending FlightAware
07:57PM -35.5790 147.8360 57° Northeast 452 520 35,000  Level FlightAware
07:58PM -35.5300 147.9300 57° Northeast 451 519 35,000  Level FlightAware
07:58PM -35.4680 148.0020 43° Northeast 454 522 35,000 60 Level FlightAware
07:59PM -35.4038 148.0306 43° Northeast 452 520 35,100  Climbing Aus ATC (RADAR)
07:59PM -35.3830 148.0320 43° Northeast 455 524 35,000 -120 Descending FlightAware
08:00PM -35.2870 148.0380 North 450 518 35,000 60 Level FlightAware
08:00PM -35.2225 148.0417 North 458 527 35,100  Climbing Aus ATC (RADAR)
08:01PM -35.2040 148.0430 North 447 514 35,000 -120 Descending FlightAware
08:01PM -35.1100 148.0500 North 453 521 35,000  Level FlightAware
08:02PM -35.0250 148.0560 North 450 518 35,000  Level FlightAware
08:02PM -34.9713 148.0594 North 451 519 35,000  Level Aus ATC (RADAR)
08:03PM -34.9420 148.0610 North 449 517 35,000  Level FlightAware
08:03PM -34.8510 148.0670 North 449 517 35,000  Level FlightAware
08:04PM -34.7650 148.0730 North 448 516 35,000  Level FlightAware
08:05PM -34.6810 148.0790 North 447 514 35,000 60 Level FlightAware
08:05PM -34.6297 148.0833 North 448 516 35,100  Climbing Aus ATC (RADAR)
08:05PM -34.5880 148.0860 North 447 514 35,000 -120 Descending FlightAware
08:06PM -34.5070 148.0920 North 448 516 35,000 60 Level FlightAware
08:07PM -34.4541 148.0963 North 449 517 35,100  Climbing Aus ATC (RADAR)
08:07PM -34.4130 148.1000 North 442 509 35,000  Descending FlightAware
08:08PM -34.3370 148.1400 23° Northeast 454 522 35,100 60 Climbing FlightAware
08:08PM -34.2790 148.2260 51° Northeast 453 521 35,100  Level FlightAware
08:09PM -34.2630 148.3130 77° East 449 517 35,100 -120 Level FlightAware
08:10PM -34.2800 148.4360 100° East 444 511 35,000 -120 Descending FlightAware
08:10PM -34.2940 148.5300 100° East 443 510 35,000  Level FlightAware
08:11PM -34.3090 148.6300 100° East 443 510 35,000  Level FlightAware
08:12PM -34.3260 148.7390 101° East 445 512 35,000 -360 Level FlightAware
08:12PM -34.3410 148.8390 100° East 448 516 34,500 -900 Descending FlightAware
08:13PM -34.3560 148.9360 101° East 445 512 33,800 -1,020 Descending FlightAware
08:14PM -34.3730 149.0510 100° East 440 506 33,100 -960 Descending FlightAware
08:14PM -34.3863 149.1412 100° East 425 489 32,500 -900 Descending Aus ATC (RADAR)
08:15PM -34.3870 149.1440 100° East 435 501 32,500 -1,680 Level FlightAware
08:15PM -34.4030 149.2520 100° East 427 491 31,200 -1,800 Descending FlightAware
08:16PM -34.4160 149.3460 100° East 420 483 30,000 -1,800 Descending FlightAware
08:17PM -34.4300 149.4380 100° East 412 474 28,800 -1,560 Descending FlightAware
08:17PM -34.4440 149.5350 100° East 398 458 27,800 -1,740 Descending FlightAware
08:18PM -34.4570 149.6240 100° East 396 456 26,400 -1,860 Descending FlightAware
08:19PM -34.4710 149.7190 100° East 388 447 25,200 -1,740 Descending FlightAware
08:19PM -34.4794 149.7808 100° East 373 429 24,400 -1,800 Descending Aus ATC (RADAR)
08:19PM -34.4830 149.8060 100° East 382 440 24,000 -1,680 Descending FlightAware
08:20PM -34.4960 149.9000 100° East 374 430 22,800 -1,560 Descending FlightAware
08:21PM -34.4820 149.9770 78° East 352 405 21,800 -1,620 Descending FlightAware
08:22PM -34.4520 150.0440 62° Northeast 346 398 20,700 -1,680 Descending FlightAware
08:22PM -34.4170 150.1230 62° Northeast 342 394 19,500 -1,680 Descending FlightAware
08:23PM -34.3870 150.1910 62° Northeast 342 394 18,400 -1,620 Descending FlightAware
08:24PM -34.3594 150.2524 62° Northeast 330 380 17,500 -1,500 Descending Aus ATC (RADAR)
08:24PM -34.3540 150.2640 62° Northeast 336 387 17,300 -1,500 Descending FlightAware
08:24PM -34.3250 150.3300 62° Northeast 329 379 16,300 -1,620 Descending FlightAware
08:25PM -34.2979 150.3899 62° Northeast 316 364 15,300 -1,500 Descending Aus ATC (RADAR)
08:25PM -34.2960 150.3940 62° Northeast 323 372 15,300 -1,500 Level FlightAware
08:26PM -34.2630 150.4680 62° Northeast 324 373 14,100 -1,440 Descending FlightAware
08:26PM -34.2360 150.5280 61° Northeast 311 358 13,300 -1,320 Descending FlightAware
08:27PM -34.2174 150.5699 61° Northeast 301 346 12,700 -1,380 Descending Aus ATC (RADAR)
08:30PM -34.1091 150.8111 62° Northeast 291 335 9,200 -1,080 Descending Aus ATC (RADAR)
08:31PM -34.0530 150.8910 62° Northeast 290 334 8,700 -540 Descending FlightAware
08:31PM -34.0280 150.9200 44° Northeast 288 331 8,400 -780 Descending FlightAware
08:32PM -33.9970 150.9540 42° Northeast 287 330 8,000 -900 Descending FlightAware
08:32PM -33.9740 150.9790 42° Northeast 289 333 7,600 -780 Descending FlightAware
08:32PM -33.9580 150.9930 36° Northeast 289 333 7,500 -600 Descending FlightAware
08:33PM -33.9360 150.9980 11° North 292 336 7,300 -540 Descending FlightAware
08:33PM -33.9049 150.9939 11° North 289 333 7,200 -720 Descending Aus ATC (RADAR)
08:33PM -33.9050 150.9940 11° North 275 316 7,000 -1,800 Descending FlightAware
08:33PM -33.8840 150.9910 353° North 275 316 6,600 -1,500 Descending FlightAware
08:34PM -33.8450 150.9850 353° North 273 314 5,900 -1,440 Descending FlightAware
08:34PM -33.8150 150.9810 354° North 277 319 5,300 -1,140 Descending FlightAware
08:35PM -33.7630 150.9980 15° North 250 288 4,600 -720 Descending FlightAware
08:35PM -33.7430 151.0280 51° Northeast 238 274 4,400 -600 Descending FlightAware
08:36PM -33.7260 151.0560 54° Northeast 213 245 4,100 -540 Descending FlightAware
08:36PM -33.7250 151.0670 84° East 206 237 4,100 -420 Level FlightAware
08:36PM -33.7300 151.0850 108° East 202 232 3,900 -840 Descending FlightAware
08:37PM -33.7480 151.1050 137° Southeast 190 219 3,500 -780 Descending FlightAware
08:37PM -33.7680 151.1240 142° Southeast 189 217 3,200 -840 Descending FlightAware
08:37PM -33.7790 151.1310 152° Southeast 188 216 2,900 -900 Descending FlightAware
08:38PM -33.8010 151.1380 165° South 180 207 2,600 -780 Descending FlightAware
08:38PM -33.8120 151.1410 167° South 167 192 2,400 -960 Descending FlightAware
08:39PM -33.8360 151.1470 168° South 152 175 1,900 -900 Descending FlightAware
08:39PM -33.8550 151.1525 168° South 146 168 1,600 -720 Descending Aus ATC (RADAR)
08:39PM -33.8520 151.1520 168° South 130 150 1,600 -840 Level FlightAware
08:40PM -33.8700 151.1560 170° South 116 133 1,200 -720 Descending FlightAware
08:40PM -33.8870 151.1610 166° South 119 137 900 -660 Descending FlightAware
08:40PM -33.9010 151.1640 170° South 117 135 600 -660 Descending FlightAware
08:41PM -33.9180 151.1690 166° South 118 136 300 -600 Descending FlightAware
08:41PM -33.9310 151.1720 169° South 119 137 -720 Descending FlightAware
08:42PM -33.9440 151.1760 166° South 38 44  Level FlightAware
08:42PM -33.9450 151.1770 140° Southeast 11 13  Level FlightAware